Time;durP1;ratioP1;P1;durP2;ratioP2;P2;SDS_P1;SDS_P2;PMS_P1;PMS_P2;Temp;Humidity;BMP_temperature;BMP_pressure;BME280_temperature;BME280_humidity;BME280_pressure;Samples;Min_cycle;Max_cycle;Signal;HPM_P1;HPM_P2
2022/10/31 00:00:44;;;;;;;33.50;31.20;;;13.70;99.90;;;;;;5055101;28;20045;-89
2022/10/31 00:03:10;;;;;;;31.13;29.10;;;13.80;99.90;;;;;;5072978;28;20032;-89
2022/10/31 00:05:40;;;;;;;34.22;31.92;;;13.90;99.90;;;;;;5056163;28;20037;-88
2022/10/31 00:08:06;;;;;;;34.47;32.05;;;13.80;99.90;;;;;;5042488;28;20043;-88
2022/10/31 00:10:32;;;;;;;32.78;30.75;;;13.90;99.90;;;;;;5062092;28;20028;-89
2022/10/31 00:12:58;;;;;;;33.38;31.15;;;13.80;99.90;;;;;;5055789;28;20035;-89
2022/10/31 00:15:24;;;;;;;35.83;33.58;;;13.80;99.90;;;;;;5077568;28;20051;-89
2022/10/31 00:17:50;;;;;;;32.90;30.35;;;13.70;99.90;;;;;;5039588;28;20028;-89
2022/10/31 00:20:17;;;;;;;31.05;29.13;;;13.60;99.90;;;;;;5038879;28;20048;-88
2022/10/31 00:22:43;;;;;;;32.00;29.65;;;13.60;99.90;;;;;;5037925;28;20037;-88
2022/10/31 00:25:09;;;;;;;33.58;31.38;;;13.80;99.90;;;;;;5058907;28;20032;-89
2022/10/31 00:27:35;;;;;;;32.28;29.83;;;13.80;99.90;;;;;;5071971;28;20047;-88
2022/10/31 00:30:01;;;;;;;36.10;33.05;;;13.80;99.90;;;;;;5060765;28;20033;-89
2022/10/31 00:32:30;;;;;;;34.88;32.25;;;13.60;99.90;;;;;;5069428;28;20043;-89
2022/10/31 00:34:56;;;;;;;41.53;38.15;;;13.40;99.90;;;;;;5029676;28;20044;-90
2022/10/31 00:37:22;;;;;;;38.97;35.55;;;13.20;99.90;;;;;;5061053;28;20060;-87
2022/10/31 00:39:49;;;;;;;36.00;32.80;;;13.20;99.90;;;;;;5056067;28;20411;-88
2022/10/31 00:42:15;;;;;;;43.85;31.83;;;13.10;99.90;;;;;;5073407;28;20047;-89
2022/10/31 00:44:41;;;;;;;38.55;35.70;;;13.10;99.90;;;;;;5055829;28;20048;-89
2022/10/31 00:47:07;;;;;;;33.45;31.25;;;13.00;99.90;;;;;;5038198;28;20037;-89
2022/10/31 00:49:33;;;;;;;35.38;32.58;;;12.90;99.90;;;;;;5047573;28;20043;-90
2022/10/31 00:51:59;;;;;;;35.95;33.58;;;12.80;99.90;;;;;;5052749;28;20040;-90
2022/10/31 00:54:26;;;;;;;39.08;36.47;;;12.80;99.90;;;;;;5077100;28;20037;-89
2022/10/31 00:56:52;;;;;;;40.10;37.53;;;12.70;99.90;;;;;;5059355;28;20031;-89
2022/10/31 00:59:18;;;;;;;42.88;40.05;;;12.70;99.90;;;;;;5029981;28;20477;-89
2022/10/31 01:01:44;;;;;;;44.58;41.67;;;12.70;99.90;;;;;;5058669;28;20033;-89
2022/10/31 01:04:10;;;;;;;41.13;38.63;;;12.80;99.90;;;;;;5045534;28;20119;-89
2022/10/31 01:06:36;;;;;;;42.92;40.20;;;12.80;99.90;;;;;;5045295;28;20036;-89
2022/10/31 01:09:02;;;;;;;40.63;38.13;;;13.00;99.90;;;;;;5062083;28;20472;-89
2022/10/31 01:11:28;;;;;;;40.63;37.97;;;13.00;99.90;;;;;;5046006;28;20036;-89
2022/10/31 01:13:54;;;;;;;39.05;36.40;;;13.00;99.90;;;;;;5065443;28;20043;-90
2022/10/31 01:16:22;;;;;;;39.20;36.72;;;13.00;99.90;;;;;;5067633;28;20405;-89
2022/10/31 01:18:48;;;;;;;36.97;34.50;;;12.90;99.90;;;;;;5044986;28;20028;-88
2022/10/31 01:21:19;;;;;;;39.63;36.60;;;12.90;99.90;;;;;;5074371;28;20033;-89
2022/10/31 01:23:45;;;;;;;39.78;36.20;;;13.00;99.90;;;;;;5051483;28;20021;-90
2022/10/31 01:26:15;;;;;;;36.40;34.17;;;13.00;99.90;;;;;;5028574;28;20032;-89
2022/10/31 01:28:49;;;;;;;38.70;36.42;;;13.00;99.90;;;;;;5041969;28;20492;-88
2022/10/31 01:31:15;;;;;;;38.95;36.35;;;13.00;99.90;;;;;;5057958;28;20036;-89
2022/10/31 01:33:41;;;;;;;38.92;36.67;;;13.20;99.90;;;;;;5030695;28;20051;-89
2022/10/31 01:36:27;;;;;;;37.42;35.13;;;13.10;99.90;;;;;;5041473;28;20404;-90
2022/10/31 01:38:55;;;;;;;36.72;34.22;;;13.10;99.90;;;;;;5040523;28;20056;-90
2022/10/31 01:41:23;;;;;;;36.90;34.65;;;13.00;99.90;;;;;;5059029;28;20052;-89
2022/10/31 01:43:54;;;;;;;35.08;32.92;;;13.10;99.90;;;;;;5041756;28;20048;-89
2022/10/31 01:46:24;;;;;;;33.90;31.85;;;13.10;99.90;;;;;;5076269;28;20485;-89
2022/10/31 01:48:51;;;;;;;36.50;34.13;;;13.00;99.90;;;;;;5062142;28;20465;-91
2022/10/31 01:51:17;;;;;;;34.80;32.75;;;13.00;99.90;;;;;;5045074;28;20481;-90
2022/10/31 01:53:43;;;;;;;35.00;32.90;;;12.90;99.90;;;;;;5040703;28;20040;-89
2022/10/31 01:56:10;;;;;;;36.90;34.42;;;12.80;99.90;;;;;;5051152;28;20055;-89
2022/10/31 01:58:36;;;;;;;40.45;37.88;;;12.80;99.90;;;;;;5041201;28;20039;-90
2022/10/31 02:01:02;;;;;;;42.67;39.90;;;13.00;99.90;;;;;;5040136;28;20409;-89
2022/10/31 02:03:28;;;;;;;33.67;31.70;;;13.10;99.90;;;;;;5040730;28;20485;-90
2022/10/31 02:05:54;;;;;;;37.90;35.70;;;13.10;99.90;;;;;;5049119;28;20040;-89
2022/10/31 02:08:25;;;;;;;41.03;38.30;;;13.10;99.90;;;;;;5058782;28;20040;-88
2022/10/31 02:10:51;;;;;;;37.13;34.95;;;13.10;99.90;;;;;;5039555;28;20056;-90
2022/10/31 02:13:17;;;;;;;36.75;34.50;;;13.20;99.90;;;;;;5071467;28;20392;-88
2022/10/31 02:15:44;;;;;;;37.20;34.92;;;13.30;99.90;;;;;;5051107;28;20037;-89
2022/10/31 02:18:10;;;;;;;38.28;35.67;;;13.40;99.90;;;;;;5029127;28;20047;-88
2022/10/31 02:21:32;;;;;;;35.35;33.20;;;13.40;99.90;;;;;;5051931;28;20040;-89
2022/10/31 02:24:03;;;;;;;33.55;31.50;;;13.50;99.90;;;;;;4977655;28;20070;-89
2022/10/31 02:26:44;;;;;;;34.95;32.67;;;13.40;99.90;;;;;;4992405;28;20052;-89
2022/10/31 02:29:39;;;;;;;32.00;30.00;;;13.40;99.90;;;;;;4997024;28;20386;-90
2022/10/31 02:32:21;;;;;;;33.65;31.55;;;13.40;99.90;;;;;;4999316;28;20041;-89
2022/10/31 02:34:58;;;;;;;34.53;32.28;;;13.50;99.90;;;;;;4995040;28;20482;-90
2022/10/31 02:37:42;;;;;;;37.70;35.40;;;13.50;99.90;;;;;;4979515;28;20060;-90
2022/10/31 02:40:16;;;;;;;36.15;33.90;;;13.50;99.90;;;;;;5013690;28;20034;-90
2022/10/31 02:42:59;;;;;;;36.72;34.53;;;13.50;99.90;;;;;;4995864;28;20038;-90
2022/10/31 02:45:34;;;;;;;36.35;34.20;;;13.60;99.90;;;;;;4973462;28;20042;-90
2022/10/31 02:48:04;;;;;;;36.92;34.33;;;13.60;99.90;;;;;;5011331;28;20053;-89
2022/10/31 02:50:32;;;;;;;36.42;33.92;;;13.60;99.90;;;;;;4981355;28;20042;-90
2022/10/31 02:52:58;;;;;;;35.20;33.05;;;13.60;99.90;;;;;;4997643;28;20134;-89
2022/10/31 02:55:24;;;;;;;36.17;34.08;;;13.70;99.90;;;;;;4995480;28;20037;-88
2022/10/31 02:57:52;;;;;;;37.67;35.38;;;13.70;99.90;;;;;;5029807;28;20044;-90
2022/10/31 03:00:18;;;;;;;36.78;34.58;;;13.70;99.90;;;;;;5056330;28;20021;-89
2022/10/31 03:03:03;;;;;;;37.47;34.88;;;13.70;99.90;;;;;;5041160;28;20059;-89
2022/10/31 03:05:47;;;;;;;37.17;34.95;;;13.70;99.90;;;;;;5082222;28;20039;-88
2022/10/31 03:08:25;;;;;;;37.42;35.17;;;13.70;99.90;;;;;;5083789;28;20392;-90
2022/10/31 03:10:58;;;;;;;38.45;35.90;;;13.70;99.90;;;;;;5056275;28;20041;-90
2022/10/31 03:13:39;;;;;;;38.15;35.85;;;13.60;99.90;;;;;;5075682;28;20036;-89
2022/10/31 03:16:10;;;;;;;38.03;35.72;;;13.40;99.90;;;;;;5058574;28;20485;-89
2022/10/31 03:19:04;;;;;;;38.47;36.10;;;13.40;99.90;;;;;;5045009;28;20472;-89
2022/10/31 03:21:34;;;;;;;39.10;36.50;;;13.40;99.90;;;;;;5056774;28;20473;-90
2022/10/31 03:24:00;;;;;;;36.13;33.83;;;13.40;99.90;;;;;;5038848;28;20048;-88
2022/10/31 03:26:27;;;;;;;38.42;35.80;;;13.50;99.90;;;;;;5049650;28;20040;-89
2022/10/31 03:29:04;;;;;;;36.83;34.42;;;13.50;99.90;;;;;;5039882;28;20043;-89
2022/10/31 03:31:33;;;;;;;38.10;35.63;;;13.40;99.90;;;;;;5031496;28;20032;-90
2022/10/31 03:34:00;;;;;;;36.80;34.42;;;13.30;99.90;;;;;;5058816;28;20042;-89
2022/10/31 03:36:26;;;;;;;37.03;34.70;;;13.10;99.90;;;;;;5028493;28;20389;-89
2022/10/31 03:38:52;;;;;;;35.60;33.30;;;13.20;99.90;;;;;;5039962;28;20500;-89
2022/10/31 03:41:21;;;;;;;38.15;35.67;;;13.20;99.90;;;;;;5064911;28;20033;-89
2022/10/31 03:43:55;;;;;;;37.22;34.38;;;13.40;99.90;;;;;;5057475;28;20029;-88
2022/10/31 03:46:21;;;;;;;39.33;36.78;;;13.40;99.90;;;;;;5040725;28;20039;-90
2022/10/31 03:48:47;;;;;;;38.83;36.33;;;13.50;99.90;;;;;;5042608;28;20501;-88
2022/10/31 03:51:18;;;;;;;39.38;36.63;;;13.60;99.90;;;;;;5065690;28;20028;-89
2022/10/31 03:54:08;;;;;;;39.45;36.47;;;13.70;99.90;;;;;;5040004;28;20043;-88
2022/10/31 03:56:41;;;;;;;36.00;33.60;;;13.70;99.90;;;;;;5057297;28;20500;-89
2022/10/31 03:59:10;;;;;;;37.92;35.42;;;13.80;99.90;;;;;;5059587;28;20027;-90
2022/10/31 04:01:39;;;;;;;40.17;37.47;;;13.80;99.90;;;;;;5041698;28;20044;-90
2022/10/31 04:04:05;;;;;;;38.42;35.90;;;13.80;99.90;;;;;;5057809;28;20040;-90
2022/10/31 04:06:31;;;;;;;39.13;36.45;;;13.80;99.90;;;;;;5058827;28;20034;-88
2022/10/31 04:08:59;;;;;;;39.47;36.83;;;13.80;99.90;;;;;;5058657;28;20032;-88
2022/10/31 04:11:28;;;;;;;40.55;37.92;;;13.80;99.90;;;;;;5057591;28;20020;-87
2022/10/31 04:13:54;;;;;;;40.28;37.75;;;13.70;99.90;;;;;;5045018;28;20020;-87
2022/10/31 04:16:20;;;;;;;39.97;37.28;;;13.60;99.90;;;;;;5075266;28;20040;-87
2022/10/31 04:18:47;;;;;;;41.47;38.72;;;13.60;99.90;;;;;;5045638;28;20032;-87
2022/10/31 04:21:13;;;;;;;40.63;38.00;;;13.80;99.90;;;;;;5057451;28;20039;-89
2022/10/31 04:23:39;;;;;;;40.20;37.42;;;13.70;99.90;;;;;;5055600;28;20043;-86
2022/10/31 04:26:05;;;;;;;39.50;36.92;;;13.60;99.90;;;;;;5073013;28;20032;-87
2022/10/31 04:28:33;;;;;;;39.92;37.40;;;13.60;99.90;;;;;;5064460;28;20028;-88
2022/10/31 04:30:59;;;;;;;37.53;34.78;;;13.60;99.90;;;;;;5071673;28;20033;-84
2022/10/31 04:33:25;;;;;;;39.65;37.15;;;13.40;99.90;;;;;;5052133;28;20044;-85
2022/10/31 04:35:52;;;;;;;38.38;35.88;;;13.40;99.90;;;;;;5044679;28;20028;-86
2022/10/31 04:38:18;;;;;;;39.92;37.22;;;13.40;99.90;;;;;;5046512;28;20024;-83
2022/10/31 04:40:45;;;;;;;38.20;35.92;;;13.40;99.90;;;;;;5062741;28;20025;-84
2022/10/31 04:43:11;;;;;;;36.28;33.80;;;13.20;99.90;;;;;;5054582;28;20036;-83
2022/10/31 04:45:37;;;;;;;37.40;35.17;;;13.10;99.90;;;;;;5058518;28;20028;-84
2022/10/31 04:48:03;;;;;;;39.22;36.30;;;13.20;99.90;;;;;;5039255;28;20036;-84
2022/10/31 04:50:29;;;;;;;41.03;38.58;;;13.20;99.90;;;;;;5053740;28;20028;-84
2022/10/31 04:52:56;;;;;;;37.85;35.40;;;13.40;99.90;;;;;;5035757;28;20041;-83
2022/10/31 04:55:22;;;;;;;37.10;34.60;;;13.40;99.90;;;;;;5040604;28;20039;-85
2022/10/31 04:57:48;;;;;;;36.13;33.80;;;13.40;99.90;;;;;;5040034;28;20055;-83
2022/10/31 05:00:16;;;;;;;34.65;31.95;;;13.40;99.90;;;;;;5056441;28;20024;-83
2022/10/31 05:02:44;;;;;;;34.42;32.03;;;13.40;99.90;;;;;;5055851;28;20032;-84
2022/10/31 05:05:10;;;;;;;34.10;31.73;;;13.20;99.90;;;;;;5037309;28;20107;-89
2022/10/31 05:07:43;;;;;;;35.22;32.63;;;13.20;99.90;;;;;;5063410;28;20023;-86
2022/10/31 05:10:10;;;;;;;33.17;30.55;;;13.10;99.90;;;;;;5047888;28;20039;-87
2022/10/31 05:12:36;;;;;;;31.77;29.58;;;13.10;99.90;;;;;;5053787;28;20039;-86
2022/10/31 05:15:04;;;;;;;32.17;29.95;;;13.10;99.90;;;;;;5040075;28;20029;-86
2022/10/31 05:17:31;;;;;;;31.70;29.58;;;13.00;99.90;;;;;;5027808;28;20045;-87
2022/10/31 05:19:57;;;;;;;32.03;29.85;;;12.90;99.90;;;;;;5053540;28;20401;-85
2022/10/31 05:22:23;;;;;;;32.85;30.55;;;12.80;99.90;;;;;;5036928;28;20040;-86
2022/10/31 05:24:49;;;;;;;36.58;34.22;;;12.90;99.90;;;;;;5036629;28;20033;-86
2022/10/31 05:27:15;;;;;;;40.53;37.80;;;13.00;99.90;;;;;;5035716;28;20044;-86
2022/10/31 05:29:41;;;;;;;45.28;42.47;;;13.20;99.90;;;;;;5070511;28;20032;-85
2022/10/31 05:32:07;;;;;;;50.75;47.75;;;13.20;99.90;;;;;;5052994;28;20024;-87
2022/10/31 05:34:33;;;;;;;52.22;49.13;;;13.20;99.90;;;;;;5057114;28;20035;-87
2022/10/31 05:36:59;;;;;;;44.92;42.38;;;13.20;99.90;;;;;;5060033;28;20024;-87
2022/10/31 05:39:26;;;;;;;52.33;49.33;;;13.20;99.90;;;;;;5044133;28;20039;-85
2022/10/31 05:41:52;;;;;;;50.75;47.53;;;13.20;99.90;;;;;;5059734;28;20036;-87
2022/10/31 05:44:18;;;;;;;44.13;41.63;;;13.30;99.90;;;;;;5065762;28;20024;-86
2022/10/31 05:46:46;;;;;;;37.95;35.75;;;13.40;99.90;;;;;;5068774;28;20400;-87
2022/10/31 05:49:12;;;;;;;35.47;33.28;;;13.30;99.90;;;;;;5042991;28;20047;-86
2022/10/31 05:51:38;;;;;;;40.10;37.50;;;13.30;99.90;;;;;;5059962;28;20043;-87
2022/10/31 05:54:04;;;;;;;41.25;38.70;;;13.30;99.90;;;;;;5030457;28;20036;-87
2022/10/31 05:56:30;;;;;;;35.47;33.33;;;13.30;99.90;;;;;;5074714;28;20024;-86
2022/10/31 05:58:57;;;;;;;30.38;28.48;;;13.50;99.90;;;;;;5040299;28;20035;-87
2022/10/31 06:01:23;;;;;;;29.08;27.30;;;13.60;99.90;;;;;;5062048;28;20044;-87
2022/10/31 06:03:49;;;;;;;29.00;27.20;;;13.40;99.90;;;;;;5060022;28;20040;-86
2022/10/31 06:06:15;;;;;;;28.70;26.80;;;13.40;99.90;;;;;;5060122;28;20035;-87
2022/10/31 06:08:41;;;;;;;31.77;29.73;;;13.40;99.90;;;;;;5074908;28;20032;-87
2022/10/31 06:11:07;;;;;;;30.20;28.38;;;13.30;99.90;;;;;;5075497;28;20032;-85
2022/10/31 06:13:33;;;;;;;30.27;28.27;;;13.50;99.90;;;;;;5067758;28;20036;-86
2022/10/31 06:15:59;;;;;;;29.02;26.90;;;13.60;99.90;;;;;;5049988;28;20043;-86
2022/10/31 06:18:25;;;;;;;29.20;27.13;;;13.70;99.90;;;;;;5074347;28;20032;-86
2022/10/31 06:20:51;;;;;;;31.67;29.38;;;13.80;99.90;;;;;;5045075;28;20020;-85
2022/10/31 06:23:17;;;;;;;30.55;28.75;;;13.90;99.90;;;;;;5040926;28;20052;-86
2022/10/31 06:25:47;;;;;;;30.10;28.10;;;13.90;99.90;;;;;;5076333;28;20024;-87
2022/10/31 06:28:13;;;;;;;32.70;30.75;;;13.90;99.90;;;;;;5060485;28;20032;-86
2022/10/31 06:30:40;;;;;;;27.52;25.83;;;14.00;99.90;;;;;;5041112;28;20039;-86
2022/10/31 06:33:06;;;;;;;28.42;26.60;;;14.00;99.90;;;;;;5059153;28;20039;-86
2022/10/31 06:35:32;;;;;;;30.02;28.10;;;14.00;99.90;;;;;;5055987;28;20029;-87
2022/10/31 06:37:58;;;;;;;31.00;28.85;;;13.90;99.90;;;;;;5056847;28;20404;-87
2022/10/31 06:40:24;;;;;;;28.33;26.42;;;13.70;99.90;;;;;;5057486;28;20032;-87
2022/10/31 06:43:00;;;;;;;27.83;26.05;;;13.50;99.90;;;;;;5055558;28;20044;-88
2022/10/31 06:45:26;;;;;;;28.00;26.30;;;13.40;99.90;;;;;;5069102;28;20035;-87
2022/10/31 06:47:53;;;;;;;29.05;27.08;;;13.40;99.90;;;;;;5062673;28;20031;-87
2022/10/31 06:50:20;;;;;;;29.23;27.25;;;13.40;99.90;;;;;;5054465;28;20512;-88
2022/10/31 06:52:53;;;;;;;30.77;28.67;;;13.40;99.90;;;;;;5039312;28;20052;-90
2022/10/31 06:55:23;;;;;;;30.67;28.83;;;13.50;99.90;;;;;;5039633;28;20496;-83
2022/10/31 06:57:50;;;;;;;29.58;27.58;;;13.50;99.90;;;;;;5049611;28;20037;-83
2022/10/31 07:00:17;;;;;;;30.40;28.30;;;13.50;99.90;;;;;;5040762;28;20016;-84
2022/10/31 07:02:43;;;;;;;30.42;28.42;;;13.60;99.90;;;;;;5072173;28;20044;-84
2022/10/31 07:05:09;;;;;;;29.17;27.38;;;13.70;99.90;;;;;;5066507;28;20039;-90
2022/10/31 07:07:35;;;;;;;29.30;27.45;;;13.70;99.90;;;;;;5040860;28;20037;-90
2022/10/31 07:10:01;;;;;;;30.15;28.15;;;13.50;99.90;;;;;;5040494;28;20063;-92
2022/10/31 07:12:27;;;;;;;32.53;30.42;;;13.40;99.90;;;;;;5054924;28;20045;-90
2022/10/31 07:14:53;;;;;;;30.92;29.00;;;13.40;99.90;;;;;;5061540;28;20036;-90
2022/10/31 07:17:22;;;;;;;29.77;27.83;;;13.40;99.90;;;;;;5068415;28;20055;-91
2022/10/31 07:19:48;;;;;;;30.30;28.42;;;13.40;99.90;;;;;;5060272;28;20485;-85
2022/10/31 07:22:14;;;;;;;30.45;28.35;;;13.40;99.90;;;;;;5053894;28;20052;-85
2022/10/31 07:24:41;;;;;;;30.83;28.52;;;13.40;99.90;;;;;;5050324;28;20603;-88
2022/10/31 07:27:07;;;;;;;29.95;28.10;;;13.30;99.90;;;;;;5070231;28;20036;-87
2022/10/31 07:29:33;;;;;;;30.90;28.90;;;13.40;99.90;;;;;;5041516;28;20473;-87
2022/10/31 07:31:59;;;;;;;32.60;30.48;;;13.30;99.90;;;;;;5051746;28;20044;-86
2022/10/31 07:34:25;;;;;;;30.00;28.20;;;13.40;99.90;;;;;;5079256;28;20377;-89
2022/10/31 07:36:51;;;;;;;31.08;29.15;;;13.40;99.90;;;;;;5059266;28;20044;-88
2022/10/31 07:39:17;;;;;;;29.65;27.58;;;13.40;99.90;;;;;;5057801;28;20515;-87
2022/10/31 07:41:43;;;;;;;28.80;26.92;;;13.30;99.90;;;;;;5057235;28;20032;-86
2022/10/31 07:44:10;;;;;;;30.83;28.73;;;13.40;99.90;;;;;;5044388;28;20481;-87
2022/10/31 07:46:36;;;;;;;31.55;29.35;;;13.40;99.90;;;;;;5054987;28;20041;-87
2022/10/31 07:49:02;;;;;;;29.48;27.60;;;13.50;99.90;;;;;;5055292;28;20043;-87
2022/10/31 07:51:28;;;;;;;32.08;30.10;;;13.50;99.90;;;;;;5029540;28;20036;-86
2022/10/31 07:53:54;;;;;;;30.02;28.05;;;13.50;99.90;;;;;;5054523;28;20040;-85
2022/10/31 07:56:20;;;;;;;30.58;28.58;;;13.50;99.90;;;;;;5041767;28;20067;-84
2022/10/31 07:58:46;;;;;;;33.47;31.00;;;13.60;99.90;;;;;;5039277;28;20036;-83
2022/10/31 08:01:12;;;;;;;31.80;29.88;;;13.50;99.90;;;;;;5058161;28;20028;-85
2022/10/31 08:03:38;;;;;;;32.50;30.10;;;13.60;99.90;;;;;;5040505;28;20048;-85
2022/10/31 08:06:05;;;;;;;32.97;30.77;;;13.60;99.90;;;;;;5089079;28;20031;-85
2022/10/31 08:08:32;;;;;;;32.95;30.63;;;13.60;99.90;;;;;;5064913;28;20040;-83
2022/10/31 08:10:58;;;;;;;34.65;32.22;;;13.60;99.90;;;;;;5054195;28;20293;-79
2022/10/31 08:13:24;;;;;;;32.00;30.00;;;13.70;99.90;;;;;;5090132;28;20036;-87
2022/10/31 08:15:51;;;;;;;31.75;29.75;;;13.70;99.90;;;;;;5053785;28;20041;-91
2022/10/31 08:18:17;;;;;;;31.35;29.20;;;13.60;99.90;;;;;;5051241;28;20028;-89
2022/10/31 08:20:43;;;;;;;32.97;30.90;;;13.70;99.90;;;;;;5057233;28;20024;-94
2022/10/31 08:23:11;;;;;;;34.42;31.77;;;13.60;99.90;;;;;;5093584;28;20483;-92
2022/10/31 08:25:37;;;;;;;33.90;31.10;;;13.70;99.90;;;;;;5069652;28;20413;-90
2022/10/31 08:28:03;;;;;;;34.65;32.05;;;13.60;99.90;;;;;;5060869;28;20036;-87
2022/10/31 08:30:30;;;;;;;35.97;33.55;;;13.70;99.90;;;;;;5050091;28;20382;-87
2022/10/31 08:33:04;;;;;;;41.40;38.58;;;13.70;99.90;;;;;;5043122;28;20614;-93
2022/10/31 08:35:30;;;;;;;34.88;32.63;;;13.70;99.90;;;;;;5060854;28;20028;-83
2022/10/31 08:37:56;;;;;;;31.35;29.15;;;13.80;99.90;;;;;;5056112;28;20035;-83
2022/10/31 08:40:23;;;;;;;34.83;32.45;;;13.80;99.90;;;;;;5030984;28;20047;-89
2022/10/31 08:42:59;;;;;;;38.58;36.10;;;13.80;99.90;;;;;;5054782;28;20037;-84
2022/10/31 08:45:26;;;;;;;35.35;33.00;;;13.80;99.90;;;;;;5044663;28;20048;-86
2022/10/31 08:47:52;;;;;;;49.53;46.40;;;13.90;99.90;;;;;;5032378;28;20036;-85
2022/10/31 08:50:18;;;;;;;36.13;33.88;;;13.90;99.90;;;;;;5036001;28;20203;-85
2022/10/31 08:52:44;;;;;;;47.00;43.78;;;14.00;99.90;;;;;;5070879;28;20032;-85
2022/10/31 08:55:10;;;;;;;42.83;40.13;;;14.10;99.90;;;;;;5072924;28;20400;-85
2022/10/31 08:57:36;;;;;;;38.60;36.17;;;14.10;99.90;;;;;;5053984;28;20044;-85
2022/10/31 09:00:03;;;;;;;38.72;35.65;;;14.20;99.90;;;;;;5065875;28;20393;-84
2022/10/31 09:02:29;;;;;;;39.25;36.42;;;14.20;99.90;;;;;;5068607;28;20488;-84
2022/10/31 09:04:55;;;;;;;37.05;34.55;;;14.20;99.90;;;;;;5067970;28;20025;-85
2022/10/31 09:07:25;;;;;;;45.42;42.35;;;14.30;99.90;;;;;;5063580;28;20040;-87
2022/10/31 09:09:51;;;;;;;36.78;34.30;;;14.50;99.90;;;;;;5056050;28;20473;-85
2022/10/31 09:12:17;;;;;;;36.03;33.17;;;14.50;99.90;;;;;;5046161;28;20031;-86
2022/10/31 09:14:43;;;;;;;38.00;34.92;;;14.50;99.90;;;;;;5025445;28;20111;-88
2022/10/31 09:17:09;;;;;;;33.53;31.10;;;14.50;99.90;;;;;;5044332;28;20048;-82
2022/10/31 09:19:36;;;;;;;36.78;33.80;;;14.60;99.90;;;;;;5064153;28;20423;-83
2022/10/31 09:22:02;;;;;;;32.20;29.58;;;14.60;99.90;;;;;;5041713;28;20485;-82
2022/10/31 09:24:28;;;;;;;35.08;32.58;;;14.70;99.90;;;;;;5045227;28;20044;-83
2022/10/31 09:26:54;;;;;;;32.10;29.90;;;14.80;99.90;;;;;;5057381;28;20484;-83
2022/10/31 09:29:20;;;;;;;35.53;32.58;;;14.90;99.90;;;;;;5057735;28;20032;-86
2022/10/31 09:31:46;;;;;;;34.75;31.80;;;14.90;99.90;;;;;;5041524;28;20491;-85
2022/10/31 09:34:12;;;;;;;39.80;36.90;;;14.90;99.90;;;;;;5049701;28;20102;-86
2022/10/31 09:36:38;;;;;;;40.90;37.38;;;15.00;99.90;;;;;;5077854;28;20028;-85
2022/10/31 09:39:04;;;;;;;40.97;38.00;;;15.00;99.90;;;;;;5060680;28;20020;-86
2022/10/31 09:41:40;;;;;;;33.85;31.02;;;15.20;99.90;;;;;;5047070;28;20393;-87
2022/10/31 09:44:27;;;;;;;35.45;32.40;;;15.30;99.90;;;;;;5058226;28;20401;-84
2022/10/31 09:46:59;;;;;;;39.42;36.03;;;15.50;99.90;;;;;;5026562;28;20406;-85
2022/10/31 09:50:14;;;;;;;35.85;32.90;;;15.70;99.90;;;;;;5073075;28;20032;-84
2022/10/31 09:52:43;;;;;;;37.25;34.13;;;15.90;99.90;;;;;;5050482;28;20389;-87
2022/10/31 09:55:23;;;;;;;32.97;30.08;;;16.00;99.90;;;;;;5051157;28;20020;-86
2022/10/31 09:57:49;;;;;;;39.78;36.30;;;16.10;99.90;;;;;;5057220;28;20025;-87
2022/10/31 10:00:19;;;;;;;40.08;36.70;;;16.10;99.90;;;;;;5043032;28;20040;-87
2022/10/31 10:02:56;;;;;;;44.78;41.05;;;16.30;99.90;;;;;;5041491;28;20066;-84
2022/10/31 10:05:31;;;;;;;47.97;43.50;;;16.40;99.90;;;;;;5032939;28;20040;-86
2022/10/31 10:08:00;;;;;;;46.08;41.92;;;16.40;99.90;;;;;;5065812;28;20465;-85
2022/10/31 10:10:59;;;;;;;47.28;43.38;;;16.60;99.90;;;;;;5065964;28;20041;-86
2022/10/31 10:13:50;;;;;;;40.47;37.00;;;16.70;99.90;;;;;;5059326;28;20044;-87
2022/10/31 10:16:48;;;;;;;41.83;37.50;;;16.90;99.90;;;;;;5066941;28;20041;-89
2022/10/31 10:19:27;;;;;;;34.53;31.52;;;17.00;99.90;;;;;;5051092;28;20020;-90
2022/10/31 10:22:11;;;;;;;36.03;33.00;;;17.10;99.90;;;;;;5065150;28;20031;-85
2022/10/31 10:24:53;;;;;;;38.25;34.58;;;17.10;99.90;;;;;;5076704;28;20091;-85
2022/10/31 10:27:56;;;;;;;39.20;35.70;;;17.10;99.90;;;;;;5054714;28;20035;-85
2022/10/31 10:30:28;;;;;;;36.70;33.38;;;17.10;99.90;;;;;;5086273;28;20032;-85
2022/10/31 10:32:59;;;;;;;36.05;32.58;;;17.20;99.90;;;;;;5056362;28;20025;-85
2022/10/31 10:35:28;;;;;;;;;;;17.20;99.90;;;;;;5070969;28;20032;-86
2022/10/31 10:38:21;;;;;;;30.98;27.83;;;17.30;99.90;;;;;;5084481;28;19908;-88
2022/10/31 10:40:47;;;;;;;34.08;30.80;;;17.30;99.90;;;;;;5020854;28;20046;-87
2022/10/31 10:43:20;;;;;;;33.67;30.15;;;17.40;99.90;;;;;;4995037;28;20065;-85
2022/10/31 10:49:07;;;;;;;41.83;38.35;;;17.60;99.90;;;;;;5041415;28;20095;-87
2022/10/31 10:51:54;;;;;;;43.53;39.83;;;17.70;99.90;;;;;;5013900;28;20045;-87
2022/10/31 10:54:41;;;;;;;45.85;42.47;;;17.80;99.90;;;;;;4973830;28;20047;-90
2022/10/31 10:57:17;;;;;;;48.55;44.90;;;18.00;99.90;;;;;;4977305;28;20609;-90
2022/10/31 10:59:44;;;;;;;51.20;47.25;;;18.10;99.90;;;;;;4971183;28;20114;-88
2022/10/31 11:02:25;;;;;;;52.30;47.97;;;18.20;99.90;;;;;;4939322;28;20036;-89
2022/10/31 11:04:52;;;;;;;;;;;18.30;99.90;;;;;;4941808;28;20130;-88
2022/10/31 11:07:18;;;;;;;46.92;43.13;;;18.30;99.90;;;;;;4941432;28;20390;-92
2022/10/31 11:09:45;;;;;;;46.67;43.08;;;18.40;99.90;;;;;;4940348;28;20035;-92
2022/10/31 11:12:28;;;;;;;46.78;42.83;;;18.40;99.90;;;;;;4942070;28;20038;-89
2022/10/31 11:14:59;;;;;;;44.22;40.33;;;18.50;99.90;;;;;;4927580;28;20411;-91
2022/10/31 11:17:34;;;;;;;47.13;42.88;;;18.60;99.90;;;;;;4967789;28;20045;-91
2022/10/31 11:20:05;;;;;;;46.40;42.58;;;18.60;99.90;;;;;;5009923;28;20045;-91
2022/10/31 11:22:31;;;;;;;41.83;38.10;;;18.50;99.90;;;;;;4995675;28;20034;-92
2022/10/31 11:24:58;;;;;;;45.65;41.85;;;18.60;99.90;;;;;;5005124;28;20045;-90
2022/10/31 11:27:25;;;;;;;41.70;38.35;;;18.60;99.90;;;;;;5001849;28;20106;-92
2022/10/31 11:29:51;;;;;;;42.13;37.78;;;18.70;99.90;;;;;;4999689;28;20558;-90
2022/10/31 11:32:22;;;;;;;38.33;34.88;;;18.70;99.90;;;;;;5042103;28;20040;-91
2022/10/31 11:34:51;;;;;;;36.28;32.70;;;18.80;99.90;;;;;;5043093;28;20032;-87
2022/10/31 11:37:34;;;;;;;35.35;32.45;;;18.90;99.90;;;;;;5050692;28;20029;-89
2022/10/31 11:40:04;;;;;;;32.03;29.45;;;18.90;99.90;;;;;;5038800;28;20033;-86
2022/10/31 11:42:41;;;;;;;33.67;30.52;;;19.00;99.90;;;;;;5027739;28;20044;-89
2022/10/31 11:45:17;;;;;;;30.73;27.77;;;19.00;99.90;;;;;;5037440;28;20393;-86
2022/10/31 11:47:47;;;;;;;35.20;32.20;;;19.20;99.90;;;;;;5031310;28;20041;-86
2022/10/31 11:50:50;;;;;;;30.63;28.20;;;19.20;99.90;;;;;;5042898;28;20043;-88
2022/10/31 11:53:33;;;;;;;32.83;29.95;;;19.30;99.90;;;;;;4977727;28;20038;-88
2022/10/31 11:56:03;;;;;;;33.47;30.50;;;19.40;99.90;;;;;;4964384;28;20057;-89
2022/10/31 11:58:29;;;;;;;40.45;37.08;;;19.40;99.90;;;;;;4991969;28;20038;-90
2022/10/31 12:00:56;;;;;;;43.03;39.60;;;19.40;99.90;;;;;;4959287;28;20034;-91
2022/10/31 12:03:22;;;;;;;28.08;25.75;;;19.40;99.90;;;;;;4969835;28;20084;-79
2022/10/31 12:06:11;;;;;;;26.92;24.48;;;19.40;99.90;;;;;;4986573;28;20041;-83
2022/10/31 12:08:38;;;;;;;28.05;25.52;;;19.40;99.90;;;;;;4894963;29;20052;-83
2022/10/31 12:11:36;;;;;;;26.35;24.02;;;19.50;99.90;;;;;;4893102;29;20051;-83
2022/10/31 12:14:17;;;;;;;28.15;26.13;;;19.50;99.60;;;;;;4890987;29;20041;-81
2022/10/31 12:16:55;;;;;;;27.30;24.67;;;19.60;99.70;;;;;;4909239;29;20141;-82
2022/10/31 12:19:36;;;;;;;28.52;25.90;;;19.60;99.50;;;;;;4911137;29;20036;-81
2022/10/31 12:22:05;;;;;;;;;;;19.70;99.70;;;;;;4912061;29;20044;-82
2022/10/31 12:24:57;;;;;;;28.30;25.67;;;19.70;99.50;;;;;;4909569;29;20016;-82
2022/10/31 12:27:45;;;;;;;26.67;24.38;;;19.70;99.70;;;;;;4912584;29;20386;-83
2022/10/31 12:30:16;;;;;;;28.65;25.77;;;19.80;99.00;;;;;;4969649;28;20073;-82
2022/10/31 12:33:14;;;;;;;27.45;25.38;;;19.80;98.90;;;;;;4966871;28;20045;-81
2022/10/31 12:35:56;;;;;;;28.10;25.73;;;19.90;98.40;;;;;;4909533;29;20040;-82
2022/10/31 12:38:40;;;;;;;31.48;28.52;;;19.90;98.30;;;;;;4895875;29;20144;-83
2022/10/31 12:41:12;;;;;;;28.10;25.60;;;20.00;98.00;;;;;;4879021;29;20078;-81
2022/10/31 12:43:57;;;;;;;29.27;26.52;;;20.00;98.00;;;;;;4894837;29;20059;-82
2022/10/31 12:46:31;;;;;;;31.67;29.13;;;20.00;98.30;;;;;;4967660;28;20034;-82